sensor_id;sensor_type;location;lat;lon;timestamp;P1;durP1;ratioP1;P2;durP2;ratioP2
76729;SDS011;65653;53.106;18.046;2024-01-15T00:01:31;12.60;;;7.10;;
76729;SDS011;65653;53.106;18.046;2024-01-15T00:03:59;14.60;;;8.00;;
76729;SDS011;65653;53.106;18.046;2024-01-15T00:06:25;15.30;;;8.40;;
76729;SDS011;65653;53.106;18.046;2024-01-15T00:08:53;13.30;;;7.40;;
76729;SDS011;65653;53.106;18.046;2024-01-15T00:11:19;13.10;;;7.60;;
76729;SDS011;65653;53.106;18.046;2024-01-15T00:13:46;12.40;;;7.30;;
76729;SDS011;65653;53.106;18.046;2024-01-15T00:16:12;11.90;;;5.80;;
76729;SDS011;65653;53.106;18.046;2024-01-15T00:18:39;13.30;;;7.90;;
76729;SDS011;65653;53.106;18.046;2024-01-15T00:21:05;11.40;;;7.20;;
76729;SDS011;65653;53.106;18.046;2024-01-15T00:23:32;16.40;;;8.80;;
76729;SDS011;65653;53.106;18.046;2024-01-15T00:25:58;14.50;;;7.60;;
76729;SDS011;65653;53.106;18.046;2024-01-15T00:28:24;15.70;;;7.30;;
76729;SDS011;65653;53.106;18.046;2024-01-15T00:30:51;13.80;;;8.30;;
76729;SDS011;65653;53.106;18.046;2024-01-15T00:33:17;13.10;;;7.40;;
76729;SDS011;65653;53.106;18.046;2024-01-15T00:35:44;11.50;;;6.70;;
76729;SDS011;65653;53.106;18.046;2024-01-15T00:38:10;7.50;;;4.20;;
76729;SDS011;65653;53.106;18.046;2024-01-15T00:40:37;14.00;;;7.20;;
76729;SDS011;65653;53.106;18.046;2024-01-15T00:43:03;15.40;;;8.80;;
76729;SDS011;65653;53.106;18.046;2024-01-15T00:45:30;14.60;;;7.70;;
76729;SDS011;65653;53.106;18.046;2024-01-15T00:47:57;16.70;;;9.10;;
76729;SDS011;65653;53.106;18.046;2024-01-15T00:50:25;15.90;;;9.10;;
76729;SDS011;65653;53.106;18.046;2024-01-15T00:52:52;18.10;;;9.80;;
76729;SDS011;65653;53.106;18.046;2024-01-15T00:55:18;14.70;;;8.00;;
76729;SDS011;65653;53.106;18.046;2024-01-15T00:57:45;15.00;;;8.70;;
76729;SDS011;65653;53.106;18.046;2024-01-15T01:00:11;15.40;;;9.40;;
76729;SDS011;65653;53.106;18.046;2024-01-15T01:02:38;15.30;;;7.50;;
76729;SDS011;65653;53.106;18.046;2024-01-15T01:05:05;15.10;;;8.70;;
76729;SDS011;65653;53.106;18.046;2024-01-15T01:07:32;18.00;;;10.30;;
76729;SDS011;65653;53.106;18.046;2024-01-15T01:09:59;12.70;;;7.90;;
76729;SDS011;65653;53.106;18.046;2024-01-15T01:12:25;14.50;;;9.20;;
76729;SDS011;65653;53.106;18.046;2024-01-15T01:14:51;11.90;;;6.90;;
76729;SDS011;65653;53.106;18.046;2024-01-15T01:17:18;12.90;;;7.20;;
76729;SDS011;65653;53.106;18.046;2024-01-15T01:19:44;14.00;;;8.20;;
76729;SDS011;65653;53.106;18.046;2024-01-15T01:22:11;18.60;;;9.80;;
76729;SDS011;65653;53.106;18.046;2024-01-15T01:24:37;14.60;;;8.50;;
76729;SDS011;65653;53.106;18.046;2024-01-15T01:27:04;12.10;;;7.40;;
76729;SDS011;65653;53.106;18.046;2024-01-15T01:29:30;13.20;;;6.50;;
76729;SDS011;65653;53.106;18.046;2024-01-15T01:31:57;11.30;;;6.20;;
76729;SDS011;65653;53.106;18.046;2024-01-15T01:34:23;13.20;;;7.50;;
76729;SDS011;65653;53.106;18.046;2024-01-15T01:36:50;13.70;;;8.70;;
76729;SDS011;65653;53.106;18.046;2024-01-15T01:39:17;11.50;;;6.40;;
76729;SDS011;65653;53.106;18.046;2024-01-15T01:41:43;14.40;;;8.50;;
76729;SDS011;65653;53.106;18.046;2024-01-15T01:44:10;12.10;;;7.10;;
76729;SDS011;65653;53.106;18.046;2024-01-15T01:46:36;13.00;;;7.70;;
76729;SDS011;65653;53.106;18.046;2024-01-15T01:49:07;10.40;;;6.20;;
76729;SDS011;65653;53.106;18.046;2024-01-15T01:51:35;11.60;;;6.50;;
76729;SDS011;65653;53.106;18.046;2024-01-15T01:54:04;10.00;;;6.00;;
76729;SDS011;65653;53.106;18.046;2024-01-15T01:56:32;8.10;;;5.10;;
76729;SDS011;65653;53.106;18.046;2024-01-15T01:58:59;12.10;;;7.40;;
76729;SDS011;65653;53.106;18.046;2024-01-15T02:01:26;13.10;;;7.40;;
76729;SDS011;65653;53.106;18.046;2024-01-15T02:03:52;10.70;;;6.30;;
76729;SDS011;65653;53.106;18.046;2024-01-15T02:06:19;14.60;;;7.00;;
76729;SDS011;65653;53.106;18.046;2024-01-15T02:08:46;10.80;;;7.30;;
76729;SDS011;65653;53.106;18.046;2024-01-15T02:11:12;7.40;;;5.10;;
76729;SDS011;65653;53.106;18.046;2024-01-15T02:13:39;10.70;;;6.10;;
76729;SDS011;65653;53.106;18.046;2024-01-15T02:16:06;11.30;;;6.90;;
76729;SDS011;65653;53.106;18.046;2024-01-15T02:18:41;14.30;;;7.20;;
76729;SDS011;65653;53.106;18.046;2024-01-15T02:21:09;10.70;;;6.50;;
76729;SDS011;65653;53.106;18.046;2024-01-15T02:23:36;9.40;;;5.80;;
76729;SDS011;65653;53.106;18.046;2024-01-15T02:26:04;9.50;;;5.50;;
76729;SDS011;65653;53.106;18.046;2024-01-15T02:28:32;9.10;;;5.60;;
76729;SDS011;65653;53.106;18.046;2024-01-15T02:30:59;12.80;;;8.60;;
76729;SDS011;65653;53.106;18.046;2024-01-15T02:33:25;10.40;;;6.50;;
76729;SDS011;65653;53.106;18.046;2024-01-15T02:35:52;9.90;;;5.40;;
76729;SDS011;65653;53.106;18.046;2024-01-15T02:38:18;12.10;;;7.30;;
76729;SDS011;65653;53.106;18.046;2024-01-15T02:40:45;13.70;;;6.40;;
76729;SDS011;65653;53.106;18.046;2024-01-15T02:43:11;12.00;;;7.60;;
76729;SDS011;65653;53.106;18.046;2024-01-15T02:45:39;10.50;;;6.30;;
76729;SDS011;65653;53.106;18.046;2024-01-15T02:48:06;11.80;;;6.90;;
76729;SDS011;65653;53.106;18.046;2024-01-15T02:50:32;12.40;;;7.60;;
76729;SDS011;65653;53.106;18.046;2024-01-15T02:52:59;8.70;;;4.90;;
76729;SDS011;65653;53.106;18.046;2024-01-15T02:55:25;10.60;;;6.20;;
76729;SDS011;65653;53.106;18.046;2024-01-15T02:57:52;7.40;;;4.50;;
76729;SDS011;65653;53.106;18.046;2024-01-15T03:00:18;10.30;;;6.60;;
76729;SDS011;65653;53.106;18.046;2024-01-15T03:02:45;12.90;;;7.20;;
76729;SDS011;65653;53.106;18.046;2024-01-15T03:05:12;13.50;;;7.60;;
76729;SDS011;65653;53.106;18.046;2024-01-15T03:07:38;13.40;;;7.00;;
76729;SDS011;65653;53.106;18.046;2024-01-15T03:10:05;13.20;;;7.30;;
76729;SDS011;65653;53.106;18.046;2024-01-15T03:12:32;12.00;;;7.00;;
76729;SDS011;65653;53.106;18.046;2024-01-15T03:14:59;12.70;;;6.90;;
76729;SDS011;65653;53.106;18.046;2024-01-15T03:17:25;8.60;;;4.80;;
76729;SDS011;65653;53.106;18.046;2024-01-15T03:19:52;13.20;;;7.70;;
76729;SDS011;65653;53.106;18.046;2024-01-15T03:22:18;15.00;;;8.10;;
76729;SDS011;65653;53.106;18.046;2024-01-15T03:24:45;14.30;;;7.30;;
76729;SDS011;65653;53.106;18.046;2024-01-15T03:27:11;15.20;;;8.30;;
76729;SDS011;65653;53.106;18.046;2024-01-15T03:29:39;16.70;;;9.00;;
76729;SDS011;65653;53.106;18.046;2024-01-15T03:32:05;13.50;;;6.90;;
76729;SDS011;65653;53.106;18.046;2024-01-15T03:34:32;14.20;;;6.70;;
76729;SDS011;65653;53.106;18.046;2024-01-15T03:36:58;15.40;;;7.20;;
76729;SDS011;65653;53.106;18.046;2024-01-15T03:39:25;13.70;;;6.10;;
76729;SDS011;65653;53.106;18.046;2024-01-15T03:41:52;17.00;;;8.10;;
76729;SDS011;65653;53.106;18.046;2024-01-15T03:44:18;13.00;;;6.50;;
76729;SDS011;65653;53.106;18.046;2024-01-15T03:46:44;15.40;;;8.30;;
76729;SDS011;65653;53.106;18.046;2024-01-15T03:49:11;18.50;;;9.70;;
76729;SDS011;65653;53.106;18.046;2024-01-15T03:51:38;12.90;;;6.90;;
76729;SDS011;65653;53.106;18.046;2024-01-15T03:54:04;19.60;;;9.30;;
76729;SDS011;65653;53.106;18.046;2024-01-15T03:56:31;17.90;;;8.00;;
76729;SDS011;65653;53.106;18.046;2024-01-15T03:58:57;15.90;;;7.70;;
76729;SDS011;65653;53.106;18.046;2024-01-15T04:01:23;16.40;;;7.70;;
76729;SDS011;65653;53.106;18.046;2024-01-15T04:03:50;13.80;;;6.70;;
76729;SDS011;65653;53.106;18.046;2024-01-15T04:06:16;18.00;;;9.30;;
76729;SDS011;65653;53.106;18.046;2024-01-15T04:08:43;20.30;;;8.90;;
76729;SDS011;65653;53.106;18.046;2024-01-15T04:11:10;17.00;;;8.20;;
76729;SDS011;65653;53.106;18.046;2024-01-15T04:13:36;12.80;;;5.60;;
76729;SDS011;65653;53.106;18.046;2024-01-15T04:16:02;16.30;;;7.70;;
76729;SDS011;65653;53.106;18.046;2024-01-15T04:18:29;16.20;;;8.50;;
76729;SDS011;65653;53.106;18.046;2024-01-15T04:20:56;19.70;;;8.90;;
76729;SDS011;65653;53.106;18.046;2024-01-15T04:23:22;14.50;;;7.80;;
76729;SDS011;65653;53.106;18.046;2024-01-15T04:25:48;15.10;;;8.20;;
76729;SDS011;65653;53.106;18.046;2024-01-15T04:28:15;14.30;;;8.60;;
76729;SDS011;65653;53.106;18.046;2024-01-15T04:30:41;13.30;;;7.00;;
76729;SDS011;65653;53.106;18.046;2024-01-15T04:33:08;12.30;;;5.80;;
76729;SDS011;65653;53.106;18.046;2024-01-15T04:35:35;10.40;;;4.80;;
76729;SDS011;65653;53.106;18.046;2024-01-15T04:38:01;7.10;;;3.80;;
76729;SDS011;65653;53.106;18.046;2024-01-15T04:40:27;9.30;;;4.10;;
76729;SDS011;65653;53.106;18.046;2024-01-15T04:42:54;5.30;;;3.40;;
76729;SDS011;65653;53.106;18.046;2024-01-15T04:45:21;10.60;;;5.30;;
76729;SDS011;65653;53.106;18.046;2024-01-15T04:47:48;10.50;;;5.60;;
76729;SDS011;65653;53.106;18.046;2024-01-15T04:50:15;11.20;;;5.70;;
76729;SDS011;65653;53.106;18.046;2024-01-15T04:52:42;8.80;;;5.00;;
76729;SDS011;65653;53.106;18.046;2024-01-15T04:55:09;10.40;;;5.70;;
76729;SDS011;65653;53.106;18.046;2024-01-15T04:57:36;8.40;;;5.20;;
76729;SDS011;65653;53.106;18.046;2024-01-15T05:00:02;10.70;;;6.40;;
76729;SDS011;65653;53.106;18.046;2024-01-15T05:02:29;9.30;;;5.10;;
76729;SDS011;65653;53.106;18.046;2024-01-15T05:04:55;10.80;;;5.60;;
76729;SDS011;65653;53.106;18.046;2024-01-15T05:07:22;9.70;;;4.40;;
76729;SDS011;65653;53.106;18.046;2024-01-15T05:09:49;12.20;;;5.60;;
76729;SDS011;65653;53.106;18.046;2024-01-15T05:12:15;7.90;;;3.30;;
76729;SDS011;65653;53.106;18.046;2024-01-15T05:14:42;7.00;;;4.20;;
76729;SDS011;65653;53.106;18.046;2024-01-15T05:17:08;9.50;;;4.50;;
76729;SDS011;65653;53.106;18.046;2024-01-15T05:19:34;7.20;;;3.00;;
76729;SDS011;65653;53.106;18.046;2024-01-15T05:22:01;6.00;;;3.00;;
76729;SDS011;65653;53.106;18.046;2024-01-15T05:24:28;3.70;;;2.50;;
76729;SDS011;65653;53.106;18.046;2024-01-15T05:26:54;4.70;;;2.60;;
76729;SDS011;65653;53.106;18.046;2024-01-15T05:29:21;3.30;;;1.80;;
76729;SDS011;65653;53.106;18.046;2024-01-15T05:31:47;7.70;;;2.70;;
76729;SDS011;65653;53.106;18.046;2024-01-15T05:34:14;9.20;;;2.20;;
76729;SDS011;65653;53.106;18.046;2024-01-15T05:36:41;2.40;;;1.20;;
76729;SDS011;65653;53.106;18.046;2024-01-15T05:39:07;4.10;;;1.70;;
76729;SDS011;65653;53.106;18.046;2024-01-15T05:41:34;5.30;;;1.70;;
76729;SDS011;65653;53.106;18.046;2024-01-15T05:44:00;4.10;;;1.50;;
76729;SDS011;65653;53.106;18.046;2024-01-15T05:46:27;3.50;;;1.40;;
76729;SDS011;65653;53.106;18.046;2024-01-15T05:48:53;5.00;;;2.00;;
76729;SDS011;65653;53.106;18.046;2024-01-15T05:51:20;2.50;;;1.80;;
76729;SDS011;65653;53.106;18.046;2024-01-15T05:53:46;6.60;;;2.10;;
76729;SDS011;65653;53.106;18.046;2024-01-15T05:56:13;3.30;;;1.30;;
76729;SDS011;65653;53.106;18.046;2024-01-15T05:58:39;2.00;;;1.20;;
76729;SDS011;65653;53.106;18.046;2024-01-15T06:01:06;3.50;;;1.70;;
76729;SDS011;65653;53.106;18.046;2024-01-15T06:03:32;3.40;;;1.30;;
76729;SDS011;65653;53.106;18.046;2024-01-15T06:05:59;2.70;;;1.50;;
76729;SDS011;65653;53.106;18.046;2024-01-15T06:08:25;3.90;;;2.00;;
76729;SDS011;65653;53.106;18.046;2024-01-15T06:10:55;3.90;;;2.10;;
76729;SDS011;65653;53.106;18.046;2024-01-15T06:13:22;4.40;;;2.00;;
76729;SDS011;65653;53.106;18.046;2024-01-15T06:15:49;5.80;;;2.60;;
76729;SDS011;65653;53.106;18.046;2024-01-15T06:18:15;6.60;;;2.60;;
76729;SDS011;65653;53.106;18.046;2024-01-15T06:20:42;5.30;;;2.40;;
76729;SDS011;65653;53.106;18.046;2024-01-15T06:23:09;4.40;;;2.80;;
76729;SDS011;65653;53.106;18.046;2024-01-15T06:25:36;4.70;;;3.00;;
76729;SDS011;65653;53.106;18.046;2024-01-15T06:28:02;7.30;;;3.00;;
76729;SDS011;65653;53.106;18.046;2024-01-15T06:30:31;7.00;;;3.40;;
76729;SDS011;65653;53.106;18.046;2024-01-15T06:32:57;8.10;;;3.60;;
76729;SDS011;65653;53.106;18.046;2024-01-15T06:35:24;11.20;;;2.60;;
76729;SDS011;65653;53.106;18.046;2024-01-15T06:37:50;4.80;;;2.90;;
76729;SDS011;65653;53.106;18.046;2024-01-15T06:40:17;8.30;;;4.30;;
76729;SDS011;65653;53.106;18.046;2024-01-15T06:42:43;6.60;;;2.70;;
76729;SDS011;65653;53.106;18.046;2024-01-15T06:45:10;6.90;;;3.60;;
76729;SDS011;65653;53.106;18.046;2024-01-15T06:47:36;13.00;;;4.20;;
76729;SDS011;65653;53.106;18.046;2024-01-15T06:50:03;8.20;;;3.90;;
76729;SDS011;65653;53.106;18.046;2024-01-15T06:52:31;7.60;;;3.50;;
76729;SDS011;65653;53.106;18.046;2024-01-15T06:54:57;9.10;;;4.10;;
76729;SDS011;65653;53.106;18.046;2024-01-15T06:57:24;8.60;;;3.20;;
76729;SDS011;65653;53.106;18.046;2024-01-15T06:59:51;9.70;;;3.50;;
76729;SDS011;65653;53.106;18.046;2024-01-15T07:02:17;4.90;;;3.00;;
76729;SDS011;65653;53.106;18.046;2024-01-15T07:04:43;6.90;;;3.30;;
76729;SDS011;65653;53.106;18.046;2024-01-15T07:07:10;6.80;;;2.80;;
76729;SDS011;65653;53.106;18.046;2024-01-15T07:09:36;10.50;;;3.30;;
76729;SDS011;65653;53.106;18.046;2024-01-15T07:12:03;10.70;;;2.90;;
76729;SDS011;65653;53.106;18.046;2024-01-15T07:14:30;6.90;;;2.60;;
76729;SDS011;65653;53.106;18.046;2024-01-15T07:16:56;5.60;;;2.60;;
76729;SDS011;65653;53.106;18.046;2024-01-15T07:19:22;8.40;;;3.40;;
76729;SDS011;65653;53.106;18.046;2024-01-15T07:21:49;7.00;;;2.30;;
76729;SDS011;65653;53.106;18.046;2024-01-15T07:24:15;8.90;;;3.30;;
76729;SDS011;65653;53.106;18.046;2024-01-15T07:26:42;6.70;;;3.70;;
76729;SDS011;65653;53.106;18.046;2024-01-15T07:29:08;7.70;;;4.20;;
76729;SDS011;65653;53.106;18.046;2024-01-15T07:31:35;9.70;;;3.60;;
76729;SDS011;65653;53.106;18.046;2024-01-15T07:34:01;11.10;;;4.10;;
76729;SDS011;65653;53.106;18.046;2024-01-15T07:36:28;8.10;;;3.50;;
76729;SDS011;65653;53.106;18.046;2024-01-15T07:38:54;9.10;;;5.60;;
76729;SDS011;65653;53.106;18.046;2024-01-15T07:41:21;7.30;;;3.80;;
76729;SDS011;65653;53.106;18.046;2024-01-15T07:43:47;7.50;;;3.40;;
76729;SDS011;65653;53.106;18.046;2024-01-15T07:46:14;5.20;;;2.90;;
76729;SDS011;65653;53.106;18.046;2024-01-15T07:48:40;11.00;;;3.70;;
76729;SDS011;65653;53.106;18.046;2024-01-15T07:51:07;8.20;;;4.30;;
76729;SDS011;65653;53.106;18.046;2024-01-15T07:53:33;9.20;;;2.90;;
76729;SDS011;65653;53.106;18.046;2024-01-15T07:56:00;5.30;;;3.30;;
76729;SDS011;65653;53.106;18.046;2024-01-15T07:58:27;8.70;;;3.90;;
76729;SDS011;65653;53.106;18.046;2024-01-15T08:00:54;10.60;;;3.90;;
76729;SDS011;65653;53.106;18.046;2024-01-15T08:03:20;6.40;;;4.10;;
76729;SDS011;65653;53.106;18.046;2024-01-15T08:05:47;8.70;;;4.00;;
76729;SDS011;65653;53.106;18.046;2024-01-15T08:08:16;6.60;;;3.60;;
76729;SDS011;65653;53.106;18.046;2024-01-15T08:10:43;8.70;;;4.00;;
76729;SDS011;65653;53.106;18.046;2024-01-15T08:13:10;9.20;;;4.60;;
76729;SDS011;65653;53.106;18.046;2024-01-15T08:15:37;8.80;;;4.30;;
76729;SDS011;65653;53.106;18.046;2024-01-15T08:18:03;9.10;;;4.10;;
76729;SDS011;65653;53.106;18.046;2024-01-15T08:20:30;5.30;;;2.50;;
76729;SDS011;65653;53.106;18.046;2024-01-15T08:22:57;12.10;;;4.50;;
76729;SDS011;65653;53.106;18.046;2024-01-15T08:25:23;12.80;;;3.60;;
76729;SDS011;65653;53.106;18.046;2024-01-15T08:27:50;11.80;;;4.20;;
76729;SDS011;65653;53.106;18.046;2024-01-15T08:30:16;8.90;;;4.30;;
76729;SDS011;65653;53.106;18.046;2024-01-15T08:32:45;8.30;;;3.60;;
76729;SDS011;65653;53.106;18.046;2024-01-15T08:35:11;7.50;;;3.20;;
76729;SDS011;65653;53.106;18.046;2024-01-15T08:37:38;8.60;;;3.90;;
76729;SDS011;65653;53.106;18.046;2024-01-15T08:40:05;6.70;;;3.40;;
76729;SDS011;65653;53.106;18.046;2024-01-15T08:42:32;10.60;;;2.80;;
76729;SDS011;65653;53.106;18.046;2024-01-15T08:44:58;7.40;;;3.70;;
76729;SDS011;65653;53.106;18.046;2024-01-15T08:47:25;5.80;;;2.80;;
76729;SDS011;65653;53.106;18.046;2024-01-15T08:49:51;6.90;;;3.00;;
76729;SDS011;65653;53.106;18.046;2024-01-15T08:52:18;6.00;;;2.70;;
76729;SDS011;65653;53.106;18.046;2024-01-15T08:54:46;6.40;;;2.60;;
76729;SDS011;65653;53.106;18.046;2024-01-15T08:57:13;6.10;;;2.90;;
76729;SDS011;65653;53.106;18.046;2024-01-15T08:59:39;9.00;;;3.10;;
76729;SDS011;65653;53.106;18.046;2024-01-15T09:02:08;10.90;;;4.10;;
76729;SDS011;65653;53.106;18.046;2024-01-15T09:04:34;7.60;;;2.90;;
76729;SDS011;65653;53.106;18.046;2024-01-15T09:07:01;9.30;;;3.40;;
76729;SDS011;65653;53.106;18.046;2024-01-15T09:09:28;7.10;;;2.60;;
76729;SDS011;65653;53.106;18.046;2024-01-15T09:11:54;6.40;;;3.20;;
76729;SDS011;65653;53.106;18.046;2024-01-15T09:14:21;9.50;;;3.60;;
76729;SDS011;65653;53.106;18.046;2024-01-15T09:16:48;7.40;;;3.30;;
76729;SDS011;65653;53.106;18.046;2024-01-15T09:19:15;7.70;;;4.00;;
76729;SDS011;65653;53.106;18.046;2024-01-15T09:21:42;6.20;;;3.50;;
76729;SDS011;65653;53.106;18.046;2024-01-15T09:24:08;9.30;;;2.80;;
76729;SDS011;65653;53.106;18.046;2024-01-15T09:26:35;7.80;;;4.20;;
76729;SDS011;65653;53.106;18.046;2024-01-15T09:29:02;8.00;;;3.40;;
76729;SDS011;65653;53.106;18.046;2024-01-15T09:31:29;7.00;;;3.40;;
76729;SDS011;65653;53.106;18.046;2024-01-15T09:33:55;7.80;;;4.10;;
76729;SDS011;65653;53.106;18.046;2024-01-15T09:36:24;7.90;;;3.90;;
76729;SDS011;65653;53.106;18.046;2024-01-15T09:38:51;5.90;;;3.40;;
76729;SDS011;65653;53.106;18.046;2024-01-15T09:41:18;6.10;;;3.00;;
76729;SDS011;65653;53.106;18.046;2024-01-15T09:43:45;8.10;;;3.70;;
76729;SDS011;65653;53.106;18.046;2024-01-15T09:46:12;7.20;;;3.70;;
76729;SDS011;65653;53.106;18.046;2024-01-15T09:48:39;9.20;;;5.20;;
76729;SDS011;65653;53.106;18.046;2024-01-15T09:51:05;10.10;;;3.60;;
76729;SDS011;65653;53.106;18.046;2024-01-15T09:53:34;7.60;;;3.10;;
76729;SDS011;65653;53.106;18.046;2024-01-15T09:56:03;8.50;;;3.30;;
76729;SDS011;65653;53.106;18.046;2024-01-15T09:58:31;8.20;;;4.20;;
76729;SDS011;65653;53.106;18.046;2024-01-15T10:00:59;6.50;;;3.30;;
76729;SDS011;65653;53.106;18.046;2024-01-15T10:03:27;9.10;;;4.10;;
76729;SDS011;65653;53.106;18.046;2024-01-15T10:05:54;6.00;;;3.50;;
76729;SDS011;65653;53.106;18.046;2024-01-15T10:08:21;6.10;;;3.90;;
76729;SDS011;65653;53.106;18.046;2024-01-15T10:10:50;7.50;;;4.10;;
76729;SDS011;65653;53.106;18.046;2024-01-15T10:13:17;7.60;;;3.60;;
76729;SDS011;65653;53.106;18.046;2024-01-15T10:15:46;6.50;;;3.20;;
76729;SDS011;65653;53.106;18.046;2024-01-15T10:18:14;4.70;;;3.00;;
76729;SDS011;65653;53.106;18.046;2024-01-15T10:20:40;5.10;;;2.60;;
76729;SDS011;65653;53.106;18.046;2024-01-15T10:23:06;5.50;;;2.60;;
76729;SDS011;65653;53.106;18.046;2024-01-15T10:25:35;6.10;;;2.70;;
76729;SDS011;65653;53.106;18.046;2024-01-15T10:28:02;5.10;;;2.30;;
76729;SDS011;65653;53.106;18.046;2024-01-15T10:30:31;2.70;;;1.20;;
76729;SDS011;65653;53.106;18.046;2024-01-15T10:32:59;6.10;;;1.80;;
76729;SDS011;65653;53.106;18.046;2024-01-15T10:35:31;4.70;;;1.30;;
76729;SDS011;65653;53.106;18.046;2024-01-15T10:37:59;3.80;;;2.10;;
76729;SDS011;65653;53.106;18.046;2024-01-15T10:40:27;4.00;;;1.70;;
76729;SDS011;65653;53.106;18.046;2024-01-15T10:42:55;4.60;;;2.10;;
76729;SDS011;65653;53.106;18.046;2024-01-15T10:45:21;9.20;;;2.50;;
76729;SDS011;65653;53.106;18.046;2024-01-15T10:47:49;5.20;;;2.10;;
76729;SDS011;65653;53.106;18.046;2024-01-15T10:50:15;4.70;;;2.10;;
76729;SDS011;65653;53.106;18.046;2024-01-15T10:52:42;5.70;;;2.10;;
76729;SDS011;65653;53.106;18.046;2024-01-15T10:55:09;3.40;;;2.00;;
76729;SDS011;65653;53.106;18.046;2024-01-15T10:57:36;6.80;;;2.60;;
76729;SDS011;65653;53.106;18.046;2024-01-15T11:00:04;4.70;;;2.50;;
76729;SDS011;65653;53.106;18.046;2024-01-15T11:02:32;7.40;;;2.60;;
76729;SDS011;65653;53.106;18.046;2024-01-15T11:05:02;5.20;;;2.00;;
76729;SDS011;65653;53.106;18.046;2024-01-15T11:07:30;3.40;;;2.10;;
76729;SDS011;65653;53.106;18.046;2024-01-15T11:09:57;3.40;;;1.90;;
76729;SDS011;65653;53.106;18.046;2024-01-15T11:12:26;6.50;;;2.40;;
76729;SDS011;65653;53.106;18.046;2024-01-15T11:15:00;4.10;;;1.60;;
76729;SDS011;65653;53.106;18.046;2024-01-15T11:17:57;3.90;;;2.00;;
76729;SDS011;65653;53.106;18.046;2024-01-15T11:20:27;4.30;;;1.90;;
76729;SDS011;65653;53.106;18.046;2024-01-15T11:22:53;3.30;;;1.70;;
76729;SDS011;65653;53.106;18.046;2024-01-15T11:25:23;3.90;;;1.70;;
76729;SDS011;65653;53.106;18.046;2024-01-15T11:27:50;4.60;;;1.40;;
76729;SDS011;65653;53.106;18.046;2024-01-15T11:30:18;3.50;;;1.40;;
76729;SDS011;65653;53.106;18.046;2024-01-15T11:35:15;2.60;;;1.20;;
76729;SDS011;65653;53.106;18.046;2024-01-15T11:40:18;3.20;;;1.10;;
76729;SDS011;65653;53.106;18.046;2024-01-15T11:42:46;3.10;;;1.50;;
76729;SDS011;65653;53.106;18.046;2024-01-15T11:45:14;2.10;;;1.20;;
76729;SDS011;65653;53.106;18.046;2024-01-15T11:56:01;3.70;;;1.00;;
76729;SDS011;65653;53.106;18.046;2024-01-15T11:58:29;3.80;;;0.70;;
76729;SDS011;65653;53.106;18.046;2024-01-15T12:00:55;2.30;;;1.00;;
76729;SDS011;65653;53.106;18.046;2024-01-15T12:03:22;4.10;;;1.50;;
76729;SDS011;65653;53.106;18.046;2024-01-15T12:05:49;3.60;;;1.00;;
76729;SDS011;65653;53.106;18.046;2024-01-15T12:08:21;3.30;;;0.90;;
76729;SDS011;65653;53.106;18.046;2024-01-15T12:10:48;2.50;;;0.90;;
76729;SDS011;65653;53.106;18.046;2024-01-15T12:13:15;2.70;;;1.00;;
76729;SDS011;65653;53.106;18.046;2024-01-15T12:15:44;4.00;;;1.00;;
76729;SDS011;65653;53.106;18.046;2024-01-15T12:18:13;4.00;;;1.20;;
76729;SDS011;65653;53.106;18.046;2024-01-15T12:20:41;2.30;;;0.90;;
76729;SDS011;65653;53.106;18.046;2024-01-15T12:23:09;1.90;;;1.10;;
76729;SDS011;65653;53.106;18.046;2024-01-15T12:25:40;4.50;;;1.20;;
76729;SDS011;65653;53.106;18.046;2024-01-15T12:28:06;2.90;;;1.00;;
76729;SDS011;65653;53.106;18.046;2024-01-15T12:30:34;1.70;;;0.90;;
76729;SDS011;65653;53.106;18.046;2024-01-15T12:33:02;2.60;;;0.70;;
76729;SDS011;65653;53.106;18.046;2024-01-15T12:35:33;3.30;;;1.00;;
76729;SDS011;65653;53.106;18.046;2024-01-15T12:38:01;3.70;;;0.90;;
76729;SDS011;65653;53.106;18.046;2024-01-15T12:40:31;2.50;;;1.20;;
76729;SDS011;65653;53.106;18.046;2024-01-15T12:43:00;4.30;;;1.20;;
76729;SDS011;65653;53.106;18.046;2024-01-15T12:45:27;3.80;;;1.10;;
76729;SDS011;65653;53.106;18.046;2024-01-15T12:47:54;4.10;;;1.10;;
76729;SDS011;65653;53.106;18.046;2024-01-15T12:50:23;1.80;;;0.90;;
76729;SDS011;65653;53.106;18.046;2024-01-15T12:52:50;1.90;;;0.70;;
76729;SDS011;65653;53.106;18.046;2024-01-15T12:55:17;1.20;;;0.50;;
76729;SDS011;65653;53.106;18.046;2024-01-15T12:57:44;1.40;;;0.70;;
76729;SDS011;65653;53.106;18.046;2024-01-15T13:00:11;1.70;;;0.90;;
76729;SDS011;65653;53.106;18.046;2024-01-15T13:02:38;2.10;;;0.50;;
76729;SDS011;65653;53.106;18.046;2024-01-15T13:05:10;1.20;;;0.50;;
76729;SDS011;65653;53.106;18.046;2024-01-15T13:07:39;1.90;;;0.60;;
76729;SDS011;65653;53.106;18.046;2024-01-15T13:10:06;2.00;;;0.70;;
76729;SDS011;65653;53.106;18.046;2024-01-15T13:12:35;1.00;;;0.50;;
76729;SDS011;65653;53.106;18.046;2024-01-15T13:15:01;1.60;;;0.40;;
76729;SDS011;65653;53.106;18.046;2024-01-15T13:17:31;1.10;;;0.50;;
76729;SDS011;65653;53.106;18.046;2024-01-15T13:19:57;0.90;;;0.30;;
76729;SDS011;65653;53.106;18.046;2024-01-15T13:22:24;1.30;;;0.40;;
76729;SDS011;65653;53.106;18.046;2024-01-15T13:24:56;1.90;;;0.50;;
76729;SDS011;65653;53.106;18.046;2024-01-15T13:27:23;1.50;;;0.40;;
76729;SDS011;65653;53.106;18.046;2024-01-15T13:29:50;2.00;;;1.00;;
76729;SDS011;65653;53.106;18.046;2024-01-15T13:32:22;4.20;;;1.40;;
76729;SDS011;65653;53.106;18.046;2024-01-15T13:34:52;2.70;;;0.80;;
76729;SDS011;65653;53.106;18.046;2024-01-15T13:37:19;1.10;;;0.60;;
76729;SDS011;65653;53.106;18.046;2024-01-15T13:39:46;1.10;;;0.80;;
76729;SDS011;65653;53.106;18.046;2024-01-15T13:42:12;2.80;;;1.00;;
76729;SDS011;65653;53.106;18.046;2024-01-15T13:44:39;3.10;;;0.90;;
76729;SDS011;65653;53.106;18.046;2024-01-15T13:47:05;1.60;;;0.90;;
76729;SDS011;65653;53.106;18.046;2024-01-15T13:49:31;2.50;;;1.10;;
76729;SDS011;65653;53.106;18.046;2024-01-15T13:52:00;2.60;;;1.00;;
76729;SDS011;65653;53.106;18.046;2024-01-15T13:54:30;3.50;;;1.40;;
76729;SDS011;65653;53.106;18.046;2024-01-15T13:56:56;0.90;;;0.80;;
76729;SDS011;65653;53.106;18.046;2024-01-15T13:59:23;5.60;;;1.40;;
76729;SDS011;65653;53.106;18.046;2024-01-15T14:01:49;3.60;;;1.60;;
76729;SDS011;65653;53.106;18.046;2024-01-15T14:04:16;5.70;;;1.60;;
76729;SDS011;65653;53.106;18.046;2024-01-15T14:06:42;6.10;;;2.30;;
76729;SDS011;65653;53.106;18.046;2024-01-15T14:09:09;5.10;;;2.10;;
76729;SDS011;65653;53.106;18.046;2024-01-15T14:11:36;5.10;;;1.80;;
76729;SDS011;65653;53.106;18.046;2024-01-15T14:14:04;3.00;;;1.30;;
76729;SDS011;65653;53.106;18.046;2024-01-15T14:16:30;5.00;;;1.40;;
76729;SDS011;65653;53.106;18.046;2024-01-15T14:18:57;3.80;;;1.20;;
76729;SDS011;65653;53.106;18.046;2024-01-15T14:21:23;3.50;;;1.50;;
76729;SDS011;65653;53.106;18.046;2024-01-15T14:23:50;2.30;;;1.20;;
76729;SDS011;65653;53.106;18.046;2024-01-15T14:26:16;3.20;;;1.10;;
76729;SDS011;65653;53.106;18.046;2024-01-15T14:28:44;3.00;;;1.00;;
76729;SDS011;65653;53.106;18.046;2024-01-15T14:31:16;1.20;;;0.90;;
76729;SDS011;65653;53.106;18.046;2024-01-15T14:33:42;2.10;;;0.70;;
76729;SDS011;65653;53.106;18.046;2024-01-15T14:36:09;2.10;;;0.70;;
76729;SDS011;65653;53.106;18.046;2024-01-15T14:38:35;1.50;;;0.70;;
76729;SDS011;65653;53.106;18.046;2024-01-15T14:41:02;1.10;;;0.50;;
76729;SDS011;65653;53.106;18.046;2024-01-15T14:43:28;1.10;;;0.50;;